Honomu, HI (96728)

9:10 PM HST on August 20, 2014 (GMT -1000)
Kaupakuea | Change Station
CLOSE
Current Station
Personal Weather Station
Location: Pepeekeo, HI
Elevation: 643 ft
Nearby Weather Stations

Elev 643 ft 19.85 °N, 155.12 °W | Updated 13 seconds ago

Rain
Rain Mist
71.7 °F
Feels Like 71.7 °F
N
0.0
Wind Variable Wind from WNW
Gusts 0.0 mph

Today
High -- | Low -- °F
--% Chance of Precip.
Yesterday
High -- | Low -- °F
Precip. -- in
6:02 AM 6:45 PM
Waning Crescent, 16% visible
Pressure 29.99 in
Visibility 4.0 miles
Clouds Mostly Cloudy 600 ft
Overcast 1500 ft
Dew Point 71 °F
Humidity 97%
Rainfall 0.46 in
Snow Depth Not available.
UV 0 out of 12
Pollen Not available.
PM2.5 Good
Flu Activity Not available.
METAR PHTO 210653Z 29006KT 4SM RA BR BKN006 OVC015 24/23 A3000 RMK AO2 RAB0555E05B27 SLP156 P0013 T02390228

More Conditions Fewer Conditions

Pressure 29.99 in
Visibility 4.0 miles
Clouds Mostly Cloudy 600 ft
Overcast 1500 ft
Dew Point 71 °F
Humidity 97%
Rainfall 0.46 in
Snow Depth Not available.
UV 0 out of 12
Pollen Not available.
PM2.5 Good
Flu Activity Not available.
METAR PHTO 210653Z 29006KT 4SM RA BR BKN006 OVC015 24/23 A3000 RMK AO2 RAB0555E05B27 SLP156 P0013 T02390228

More Conditions Fewer Conditions

10-Day Weather Forecast

Almanac

Astronomy

Aug. 20, 2014 Rise Set
Actual Time 6:02 AM HST 6:45 PM HST
Civil Twilight 5:39 AM HST 7:07 PM HST
Nautical Twilight 5:12 AM HST 7:34 PM HST
Astronomical Twilight 4:45 AM HST 8:01 PM HST
Moon 2:04 AM HST (8/20) 3:25 PM HST (8/20)
Length of Visible Light 13h 28m
Length of Day
12h 43m
Tomorrow will be 1m 2s shorter.
Waning Crescent, 16% of the Moon is Illuminated
Aug 21
Waning Crescent
Aug 25
New
Sep 2
First Quarter
Sep 8
Full
Sep 15
Last Quarter

Yesterday's Extremes

State Highs State Lows

Community

WunderPhotos

Upload Photos

1,745,858 photos uploaded!

Nearby

Air Quality

  Air Quality AQ Index Pollutant
Yesterday Good
PM2.5
Current Good
PM2.5

Snow Depth

Station Depth Elevation
No new snow has been reported.

Earthquake Activity

City Distance Mag. Time & Date
No recent earthquake activity has been reported nearby.
Minimum magnitude displayed is 2.5.

Coastal Water Temperatures

Place Temperature
No Stations Reporting

Nearby Weather Stations